logo
Search for airport 
image banner adimage banner adimage banner ad
image banner ad

ED0521 - Roggenhagen

Located in , Germany

ICAO - , IATA -

Data provided by Airmate  

General information

Coordinates: N53°40'12" E13°23'55"
Elevation is 154 feet MSL.
 
View others Airports in Saxony

Operational data

Special qualification required
Current time UTC:
Current local time:
Weather at : EDAH - Heringsdorf ( 55 km )
TAF: TAF EDAH 301700Z 3018/3103 04008KT 9999 FEW040 BECMG 3018/3021 10007KT TEMPO 3018/3023 3500 SHRA SCT012 BKN040CB PROB40 TEMPO 3019/3021 TSRA BKN040CB TEMPO 3023/3103 BKN010
View NOTAMs / SUP AIP / TFR affecting this airport [VIEW]
Communications frequencies: [VIEW]

Runways:

RWY identifierQFULength (ft)Width (ft)SurfaceLDA (ft)
12120°170698GRASS
30300°170698GRASS

Airport contact information

Address: Germany

Satellite view of ED0521